sensor_id;sensor_type;location;lat;lon;timestamp;pressure;altitude;pressure_sealevel;temperature;humidity
35553;BME280;21656;46.054;13.614;2022-09-09T00:04:50;100350.50;;;19.79;100.00
35553;BME280;21656;46.054;13.614;2022-09-09T00:07:43;100357.03;;;19.93;100.00
35553;BME280;21656;46.054;13.614;2022-09-09T00:10:23;100347.78;;;19.79;100.00
35553;BME280;21656;46.054;13.614;2022-09-09T00:12:53;100356.25;;;19.84;100.00
35553;BME280;21656;46.054;13.614;2022-09-09T00:15:27;100356.56;;;19.89;100.00
35553;BME280;21656;46.054;13.614;2022-09-09T00:21:06;100348.19;;;19.91;100.00
35553;BME280;21656;46.054;13.614;2022-09-09T00:23:40;100340.78;;;19.77;100.00
35553;BME280;21656;46.054;13.614;2022-09-09T00:29:03;100348.06;;;19.84;100.00
35553;BME280;21656;46.054;13.614;2022-09-09T00:31:31;100345.72;;;19.81;100.00
35553;BME280;21656;46.054;13.614;2022-09-09T00:34:11;100355.97;;;19.79;100.00
35553;BME280;21656;46.054;13.614;2022-09-09T00:36:38;100353.75;;;19.60;100.00
35553;BME280;21656;46.054;13.614;2022-09-09T00:39:05;100342.16;;;19.58;100.00
35553;BME280;21656;46.054;13.614;2022-09-09T00:41:50;100344.28;;;19.47;100.00
35553;BME280;21656;46.054;13.614;2022-09-09T00:44:33;100350.72;;;19.55;100.00
35553;BME280;21656;46.054;13.614;2022-09-09T00:53:05;100341.41;;;19.64;100.00
35553;BME280;21656;46.054;13.614;2022-09-09T00:58:12;100352.22;;;19.57;100.00
35553;BME280;21656;46.054;13.614;2022-09-09T01:11:26;100338.69;;;19.41;100.00
35553;BME280;21656;46.054;13.614;2022-09-09T01:13:53;100347.06;;;19.39;100.00
35553;BME280;21656;46.054;13.614;2022-09-09T01:16:21;100341.00;;;19.29;100.00
35553;BME280;21656;46.054;13.614;2022-09-09T01:18:51;100343.72;;;19.29;100.00
35553;BME280;21656;46.054;13.614;2022-09-09T01:21:42;100337.47;;;19.43;100.00
35553;BME280;21656;46.054;13.614;2022-09-09T01:26:54;100332.41;;;19.40;100.00
35553;BME280;21656;46.054;13.614;2022-09-09T01:29:22;100334.47;;;19.15;100.00
35553;BME280;21656;46.054;13.614;2022-09-09T01:31:59;100329.31;;;19.20;100.00
35553;BME280;21656;46.054;13.614;2022-09-09T01:34:28;100341.75;;;19.23;100.00
35553;BME280;21656;46.054;13.614;2022-09-09T01:37:03;100331.59;;;19.09;100.00
35553;BME280;21656;46.054;13.614;2022-09-09T01:39:31;100339.47;;;19.03;100.00
35553;BME280;21656;46.054;13.614;2022-09-09T01:41:58;100333.78;;;19.13;100.00
35553;BME280;21656;46.054;13.614;2022-09-09T01:44:24;100340.28;;;19.12;100.00
35553;BME280;21656;46.054;13.614;2022-09-09T01:46:50;100333.84;;;18.74;100.00
35553;BME280;21656;46.054;13.614;2022-09-09T01:49:17;100335.41;;;18.76;100.00
35553;BME280;21656;46.054;13.614;2022-09-09T01:51:43;100330.09;;;18.75;100.00
35553;BME280;21656;46.054;13.614;2022-09-09T01:54:11;100331.94;;;18.82;100.00
35553;BME280;21656;46.054;13.614;2022-09-09T02:04:34;100320.88;;;18.84;100.00
35553;BME280;21656;46.054;13.614;2022-09-09T02:07:01;100316.81;;;19.03;100.00
35553;BME280;21656;46.054;13.614;2022-09-09T02:09:29;100322.69;;;18.92;100.00
35553;BME280;21656;46.054;13.614;2022-09-09T02:12:14;100318.44;;;18.89;100.00
35553;BME280;21656;46.054;13.614;2022-09-09T02:14:47;100324.22;;;18.94;100.00
35553;BME280;21656;46.054;13.614;2022-09-09T02:17:20;100325.72;;;18.97;100.00
35553;BME280;21656;46.054;13.614;2022-09-09T02:20:00;100320.97;;;18.91;100.00
35553;BME280;21656;46.054;13.614;2022-09-09T02:22:28;100324.50;;;18.99;100.00
35553;BME280;21656;46.054;13.614;2022-09-09T02:24:57;100319.84;;;19.08;100.00
35553;BME280;21656;46.054;13.614;2022-09-09T02:27:24;100310.44;;;19.11;100.00
35553;BME280;21656;46.054;13.614;2022-09-09T02:29:51;100311.47;;;19.10;100.00
35553;BME280;21656;46.054;13.614;2022-09-09T02:32:21;100316.56;;;19.13;100.00
35553;BME280;21656;46.054;13.614;2022-09-09T02:34:49;100308.69;;;19.18;100.00
35553;BME280;21656;46.054;13.614;2022-09-09T02:37:22;100313.09;;;19.19;100.00
35553;BME280;21656;46.054;13.614;2022-09-09T02:39:50;100319.91;;;19.23;100.00
35553;BME280;21656;46.054;13.614;2022-09-09T02:42:16;100316.56;;;19.13;100.00
35553;BME280;21656;46.054;13.614;2022-09-09T02:44:41;100306.13;;;18.93;100.00
35553;BME280;21656;46.054;13.614;2022-09-09T02:47:27;100307.03;;;18.86;100.00
35553;BME280;21656;46.054;13.614;2022-09-09T02:53:18;100309.00;;;18.69;100.00
35553;BME280;21656;46.054;13.614;2022-09-09T02:55:56;100300.94;;;18.44;100.00
35553;BME280;21656;46.054;13.614;2022-09-09T02:58:23;100298.63;;;18.64;100.00
35553;BME280;21656;46.054;13.614;2022-09-09T03:00:50;100300.25;;;18.73;100.00
35553;BME280;21656;46.054;13.614;2022-09-09T03:03:17;100289.50;;;18.80;100.00
35553;BME280;21656;46.054;13.614;2022-09-09T03:05:45;100287.16;;;18.69;100.00
35553;BME280;21656;46.054;13.614;2022-09-09T03:08:11;100277.22;;;18.84;100.00
35553;BME280;21656;46.054;13.614;2022-09-09T03:10:38;100286.63;;;18.81;100.00
35553;BME280;21656;46.054;13.614;2022-09-09T03:13:04;100287.97;;;18.46;100.00
35553;BME280;21656;46.054;13.614;2022-09-09T03:15:31;100284.63;;;18.36;100.00
35553;BME280;21656;46.054;13.614;2022-09-09T03:17:57;100278.41;;;18.50;100.00
35553;BME280;21656;46.054;13.614;2022-09-09T03:20:27;100276.50;;;18.51;100.00
35553;BME280;21656;46.054;13.614;2022-09-09T03:22:53;100280.50;;;18.71;100.00
35553;BME280;21656;46.054;13.614;2022-09-09T03:25:20;100276.78;;;18.64;100.00
35553;BME280;21656;46.054;13.614;2022-09-09T03:27:45;100277.94;;;18.70;100.00
35553;BME280;21656;46.054;13.614;2022-09-09T03:30:11;100281.88;;;18.67;100.00
35553;BME280;21656;46.054;13.614;2022-09-09T03:32:36;100287.66;;;18.41;100.00
35553;BME280;21656;46.054;13.614;2022-09-09T03:35:02;100289.75;;;18.62;100.00
35553;BME280;21656;46.054;13.614;2022-09-09T03:37:28;100282.38;;;18.39;100.00
35553;BME280;21656;46.054;13.614;2022-09-09T03:39:53;100289.34;;;18.42;100.00
35553;BME280;21656;46.054;13.614;2022-09-09T03:42:22;100278.84;;;18.62;100.00
35553;BME280;21656;46.054;13.614;2022-09-09T03:44:48;100272.97;;;18.73;100.00
35553;BME280;21656;46.054;13.614;2022-09-09T03:47:16;100279.97;;;18.76;100.00
35553;BME280;21656;46.054;13.614;2022-09-09T03:49:42;100283.72;;;18.75;100.00
35553;BME280;21656;46.054;13.614;2022-09-09T03:52:08;100286.56;;;18.58;100.00
35553;BME280;21656;46.054;13.614;2022-09-09T03:54:34;100288.03;;;18.30;100.00
35553;BME280;21656;46.054;13.614;2022-09-09T03:57:00;100285.41;;;18.45;100.00
35553;BME280;21656;46.054;13.614;2022-09-09T03:59:25;100286.19;;;18.61;100.00
35553;BME280;21656;46.054;13.614;2022-09-09T04:01:51;100282.09;;;18.57;100.00
35553;BME280;21656;46.054;13.614;2022-09-09T04:04:17;100289.59;;;18.63;100.00
35553;BME280;21656;46.054;13.614;2022-09-09T04:06:42;100280.00;;;18.68;100.00
35553;BME280;21656;46.054;13.614;2022-09-09T04:09:08;100283.72;;;18.75;100.00
35553;BME280;21656;46.054;13.614;2022-09-09T04:11:33;100279.81;;;18.77;100.00
35553;BME280;21656;46.054;13.614;2022-09-09T04:13:59;100280.13;;;18.82;100.00
35553;BME280;21656;46.054;13.614;2022-09-09T04:16:24;100291.75;;;18.76;100.00
35553;BME280;21656;46.054;13.614;2022-09-09T04:18:49;100290.22;;;18.74;100.00
35553;BME280;21656;46.054;13.614;2022-09-09T04:21:15;100275.88;;;18.80;100.00
35553;BME280;21656;46.054;13.614;2022-09-09T04:23:41;100268.25;;;18.67;100.00
35553;BME280;21656;46.054;13.614;2022-09-09T04:26:07;100270.81;;;18.69;100.00
35553;BME280;21656;46.054;13.614;2022-09-09T04:28:34;100263.88;;;18.58;100.00
35553;BME280;21656;46.054;13.614;2022-09-09T04:31:08;100269.94;;;18.68;100.00
35553;BME280;21656;46.054;13.614;2022-09-09T04:33:34;100276.53;;;18.82;100.00
35553;BME280;21656;46.054;13.614;2022-09-09T04:36:00;100269.56;;;18.79;100.00
35553;BME280;21656;46.054;13.614;2022-09-09T04:38:26;100269.22;;;18.74;100.00
35553;BME280;21656;46.054;13.614;2022-09-09T04:40:52;100267.09;;;18.61;100.00
35553;BME280;21656;46.054;13.614;2022-09-09T04:43:19;100262.00;;;18.58;100.00
35553;BME280;21656;46.054;13.614;2022-09-09T04:45:50;100255.50;;;18.59;100.00
35553;BME280;21656;46.054;13.614;2022-09-09T04:48:16;100262.84;;;18.59;100.00
35553;BME280;21656;46.054;13.614;2022-09-09T04:50:42;100267.09;;;18.61;100.00
35553;BME280;21656;46.054;13.614;2022-09-09T04:53:07;100257.72;;;18.64;100.00
35553;BME280;21656;46.054;13.614;2022-09-09T04:55:34;100253.25;;;18.71;100.00
35553;BME280;21656;46.054;13.614;2022-09-09T04:58:04;100247.91;;;18.78;100.00
35553;BME280;21656;46.054;13.614;2022-09-09T05:00:30;100255.69;;;18.89;100.00
35553;BME280;21656;46.054;13.614;2022-09-09T05:02:55;100249.38;;;18.89;100.00
35553;BME280;21656;46.054;13.614;2022-09-09T05:05:21;100257.31;;;18.98;100.00
35553;BME280;21656;46.054;13.614;2022-09-09T05:07:47;100254.72;;;19.05;100.00
35553;BME280;21656;46.054;13.614;2022-09-09T05:10:13;100262.22;;;19.03;100.00
35553;BME280;21656;46.054;13.614;2022-09-09T05:12:39;100256.59;;;19.04;100.00
35553;BME280;21656;46.054;13.614;2022-09-09T05:15:05;100252.78;;;18.91;100.00
35553;BME280;21656;46.054;13.614;2022-09-09T05:17:30;100248.53;;;18.88;100.00
35553;BME280;21656;46.054;13.614;2022-09-09T05:19:56;100249.88;;;18.92;100.00
35553;BME280;21656;46.054;13.614;2022-09-09T05:22:21;100250.59;;;18.86;100.00
35553;BME280;21656;46.054;13.614;2022-09-09T05:24:50;100240.97;;;18.67;100.00
35553;BME280;21656;46.054;13.614;2022-09-09T05:27:17;100235.16;;;18.70;100.00
35553;BME280;21656;46.054;13.614;2022-09-09T05:29:44;100237.41;;;18.67;100.00
35553;BME280;21656;46.054;13.614;2022-09-09T05:32:09;100237.03;;;18.70;100.00
35553;BME280;21656;46.054;13.614;2022-09-09T05:34:35;100237.78;;;18.63;100.00
35553;BME280;21656;46.054;13.614;2022-09-09T05:37:02;100244.91;;;18.65;100.00
35553;BME280;21656;46.054;13.614;2022-09-09T05:39:27;100250.47;;;18.79;100.00
35553;BME280;21656;46.054;13.614;2022-09-09T05:41:53;100254.75;;;18.74;100.00
35553;BME280;21656;46.054;13.614;2022-09-09T05:44:18;100257.75;;;18.87;100.00
35553;BME280;21656;46.054;13.614;2022-09-09T05:46:44;100245.72;;;18.96;100.00
35553;BME280;21656;46.054;13.614;2022-09-09T05:49:10;100257.00;;;18.93;100.00
35553;BME280;21656;46.054;13.614;2022-09-09T05:51:35;100259.19;;;18.98;100.00
35553;BME280;21656;46.054;13.614;2022-09-09T05:54:00;100259.44;;;18.88;100.00
35553;BME280;21656;46.054;13.614;2022-09-09T05:56:28;100255.69;;;18.89;100.00
35553;BME280;21656;46.054;13.614;2022-09-09T05:58:54;100259.66;;;19.01;100.00
35553;BME280;21656;46.054;13.614;2022-09-09T06:01:25;100266.22;;;19.15;100.00
35553;BME280;21656;46.054;13.614;2022-09-09T06:03:51;100261.53;;;19.24;100.00
35553;BME280;21656;46.054;13.614;2022-09-09T06:06:19;100246.25;;;19.38;100.00
35553;BME280;21656;46.054;13.614;2022-09-09T06:08:50;100237.59;;;19.49;100.00
35553;BME280;21656;46.054;13.614;2022-09-09T06:11:17;100222.72;;;19.66;100.00
35553;BME280;21656;46.054;13.614;2022-09-09T06:13:43;100226.91;;;19.92;100.00
35553;BME280;21656;46.054;13.614;2022-09-09T06:16:10;100224.06;;;20.15;100.00
35553;BME280;21656;46.054;13.614;2022-09-09T06:18:37;100232.72;;;20.33;100.00
35553;BME280;21656;46.054;13.614;2022-09-09T06:21:05;100221.94;;;20.47;100.00
35553;BME280;21656;46.054;13.614;2022-09-09T06:23:32;100232.28;;;20.51;100.00
35553;BME280;21656;46.054;13.614;2022-09-09T06:28:37;100229.06;;;20.48;100.00
35553;BME280;21656;46.054;13.614;2022-09-09T06:31:07;100231.16;;;20.46;100.00
35553;BME280;21656;46.054;13.614;2022-09-09T06:33:38;100240.22;;;20.46;100.00
35553;BME280;21656;46.054;13.614;2022-09-09T06:36:11;100246.25;;;20.42;100.00
35553;BME280;21656;46.054;13.614;2022-09-09T06:38:37;100248.72;;;20.37;100.00
35553;BME280;21656;46.054;13.614;2022-09-09T06:41:03;100263.06;;;20.39;100.00
35553;BME280;21656;46.054;13.614;2022-09-09T06:43:29;100269.16;;;20.41;100.00
35553;BME280;21656;46.054;13.614;2022-09-09T06:46:04;100276.34;;;20.42;100.00
35553;BME280;21656;46.054;13.614;2022-09-09T06:48:31;100275.41;;;20.34;100.00
35553;BME280;21656;46.054;13.614;2022-09-09T06:51:04;100267.16;;;20.13;100.00
35553;BME280;21656;46.054;13.614;2022-09-09T06:53:31;100266.59;;;20.03;100.00
35553;BME280;21656;46.054;13.614;2022-09-09T06:56:03;100278.44;;;19.95;100.00
35553;BME280;21656;46.054;13.614;2022-09-09T06:58:42;100278.16;;;19.90;100.00
35553;BME280;21656;46.054;13.614;2022-09-09T07:01:13;100275.72;;;19.80;100.00
35553;BME280;21656;46.054;13.614;2022-09-09T07:03:39;100270.16;;;19.74;100.00
35553;BME280;21656;46.054;13.614;2022-09-09T07:06:06;100275.16;;;19.70;100.00
35553;BME280;21656;46.054;13.614;2022-09-09T07:08:39;100267.31;;;19.67;100.00
35553;BME280;21656;46.054;13.614;2022-09-09T07:11:05;100269.53;;;19.63;100.00
35553;BME280;21656;46.054;13.614;2022-09-09T07:13:31;100274.28;;;19.69;100.00
35553;BME280;21656;46.054;13.614;2022-09-09T07:16:08;100282.06;;;19.58;100.00
35553;BME280;21656;46.054;13.614;2022-09-09T07:18:34;100278.50;;;19.57;100.00
35553;BME280;21656;46.054;13.614;2022-09-09T07:21:01;100275.38;;;19.60;100.00
35553;BME280;21656;46.054;13.614;2022-09-09T07:23:27;100273.66;;;19.59;100.00
35553;BME280;21656;46.054;13.614;2022-09-09T07:25:53;100272.44;;;19.62;100.00
35553;BME280;21656;46.054;13.614;2022-09-09T07:28:21;100286.09;;;19.62;100.00
35553;BME280;21656;46.054;13.614;2022-09-09T07:30:58;100282.44;;;19.55;100.00
35553;BME280;21656;46.054;13.614;2022-09-09T07:33:25;100291.81;;;19.52;100.00
35553;BME280;21656;46.054;13.614;2022-09-09T07:35:52;100289.47;;;19.49;100.00
35553;BME280;21656;46.054;13.614;2022-09-09T07:38:19;100288.34;;;19.43;100.00
35553;BME280;21656;46.054;13.614;2022-09-09T07:40:44;100285.13;;;19.40;100.00
35553;BME280;21656;46.054;13.614;2022-09-09T07:43:10;100298.41;;;19.43;100.00
35553;BME280;21656;46.054;13.614;2022-09-09T07:45:36;100287.13;;;19.46;100.00
35553;BME280;21656;46.054;13.614;2022-09-09T07:48:02;100297.00;;;19.47;100.00
35553;BME280;21656;46.054;13.614;2022-09-09T07:50:28;100289.19;;;19.44;100.00
35553;BME280;21656;46.054;13.614;2022-09-09T07:52:53;100307.75;;;19.48;100.00
35553;BME280;21656;46.054;13.614;2022-09-09T07:55:20;100319.13;;;19.52;100.00
35553;BME280;21656;46.054;13.614;2022-09-09T07:57:46;100311.63;;;19.54;100.00
35553;BME280;21656;46.054;13.614;2022-09-09T08:00:12;100312.16;;;19.49;100.00
35553;BME280;21656;46.054;13.614;2022-09-09T08:02:39;100300.81;;;19.61;100.00
35553;BME280;21656;46.054;13.614;2022-09-09T08:05:05;100295.78;;;19.73;100.00
35553;BME280;21656;46.054;13.614;2022-09-09T08:07:31;100307.09;;;19.84;100.00
35553;BME280;21656;46.054;13.614;2022-09-09T08:09:57;100307.59;;;20.03;100.00
35553;BME280;21656;46.054;13.614;2022-09-09T08:12:22;100300.31;;;20.10;100.00
35553;BME280;21656;46.054;13.614;2022-09-09T08:14:48;100285.50;;;20.19;100.00
35553;BME280;21656;46.054;13.614;2022-09-09T08:17:14;100290.88;;;20.27;100.00
35553;BME280;21656;46.054;13.614;2022-09-09T08:19:39;100279.25;;;20.40;100.00
35553;BME280;21656;46.054;13.614;2022-09-09T08:22:04;100273.63;;;20.42;100.00
35553;BME280;21656;46.054;13.614;2022-09-09T08:24:30;100282.00;;;20.40;100.00
35553;BME280;21656;46.054;13.614;2022-09-09T08:26:55;100276.53;;;20.40;100.00
35553;BME280;21656;46.054;13.614;2022-09-09T08:29:22;100286.16;;;20.36;100.00
35553;BME280;21656;46.054;13.614;2022-09-09T08:31:50;100294.94;;;20.31;100.00
35553;BME280;21656;46.054;13.614;2022-09-09T08:34:17;100299.91;;;20.28;100.00
35553;BME280;21656;46.054;13.614;2022-09-09T08:36:45;100289.59;;;20.23;100.00
35553;BME280;21656;46.054;13.614;2022-09-09T08:39:13;100287.31;;;20.12;100.00
35553;BME280;21656;46.054;13.614;2022-09-09T08:49:35;100264.03;;;20.01;100.00
35553;BME280;21656;46.054;13.614;2022-09-09T08:52:13;100249.31;;;20.02;100.00
35553;BME280;21656;46.054;13.614;2022-09-09T08:54:41;100250.19;;;20.03;100.00
35553;BME280;21656;46.054;13.614;2022-09-09T08:57:12;100240.78;;;20.05;100.00
35553;BME280;21656;46.054;13.614;2022-09-09T08:59:38;100237.38;;;20.03;100.00
35553;BME280;21656;46.054;13.614;2022-09-09T09:02:15;100256.69;;;20.02;100.00
35553;BME280;21656;46.054;13.614;2022-09-09T09:10:47;100285.63;;;19.96;100.00
35553;BME280;21656;46.054;13.614;2022-09-09T09:13:20;100281.47;;;19.85;100.00
35553;BME280;21656;46.054;13.614;2022-09-09T09:15:55;100296.53;;;19.81;100.00
35553;BME280;21656;46.054;13.614;2022-09-09T09:18:21;100303.41;;;19.92;100.00
35553;BME280;21656;46.054;13.614;2022-09-09T09:20:49;100315.84;;;19.95;100.00
35553;BME280;21656;46.054;13.614;2022-09-09T09:23:33;100335.47;;;19.98;100.00
35553;BME280;21656;46.054;13.614;2022-09-09T09:26:01;100347.34;;;19.90;100.00
35553;BME280;21656;46.054;13.614;2022-09-09T09:28:29;100337.44;;;19.89;100.00
35553;BME280;21656;46.054;13.614;2022-09-09T09:31:03;100340.78;;;19.77;100.00
35553;BME280;21656;46.054;13.614;2022-09-09T09:33:46;100336.25;;;19.69;100.00
35553;BME280;21656;46.054;13.614;2022-09-09T09:36:13;100335.47;;;19.60;100.00
35553;BME280;21656;46.054;13.614;2022-09-09T09:38:55;100331.66;;;19.46;100.00
35553;BME280;21656;46.054;13.614;2022-09-09T09:41:38;100337.94;;;19.47;100.00
35553;BME280;21656;46.054;13.614;2022-09-09T09:44:18;100348.88;;;19.47;100.00
35553;BME280;21656;46.054;13.614;2022-09-09T09:46:46;100357.06;;;19.47;100.00
35553;BME280;21656;46.054;13.614;2022-09-09T09:49:12;100360.47;;;19.49;100.00
35553;BME280;21656;46.054;13.614;2022-09-09T09:51:39;100345.19;;;19.40;100.00
35553;BME280;21656;46.054;13.614;2022-09-09T09:56:40;100342.56;;;19.46;100.00
35553;BME280;21656;46.054;13.614;2022-09-09T09:59:23;100353.56;;;19.38;100.00
35553;BME280;21656;46.054;13.614;2022-09-09T10:01:49;100355.56;;;19.44;100.00
35553;BME280;21656;46.054;13.614;2022-09-09T10:04:18;100359.63;;;19.48;100.00
35553;BME280;21656;46.054;13.614;2022-09-09T10:06:46;100358.03;;;19.54;100.00
35553;BME280;21656;46.054;13.614;2022-09-09T10:09:38;100354.75;;;19.59;100.00
35553;BME280;21656;46.054;13.614;2022-09-09T10:12:32;100351.09;;;19.66;100.00
35553;BME280;21656;46.054;13.614;2022-09-09T10:15:16;100354.38;;;19.62;100.00
35553;BME280;21656;46.054;13.614;2022-09-09T10:18:13;100349.84;;;19.54;100.00
35553;BME280;21656;46.054;13.614;2022-09-09T10:32:01;100335.09;;;19.63;100.00
35553;BME280;21656;46.054;13.614;2022-09-09T10:34:52;100336.56;;;19.74;100.00
35553;BME280;21656;46.054;13.614;2022-09-09T10:40:26;100297.78;;;20.23;100.00
35553;BME280;21656;46.054;13.614;2022-09-09T10:42:58;100300.47;;;20.38;100.00
35553;BME280;21656;46.054;13.614;2022-09-09T10:45:29;100296.44;;;20.49;100.00
35553;BME280;21656;46.054;13.614;2022-09-09T10:53:35;100272.00;;;20.84;100.00
35553;BME280;21656;46.054;13.614;2022-09-09T10:56:11;100269.88;;;21.00;100.00
35553;BME280;21656;46.054;13.614;2022-09-09T10:58:46;100269.72;;;21.09;100.00
35553;BME280;21656;46.054;13.614;2022-09-09T11:01:27;100265.66;;;21.19;100.00
35553;BME280;21656;46.054;13.614;2022-09-09T11:04:00;100259.22;;;21.34;100.00
35553;BME280;21656;46.054;13.614;2022-09-09T11:06:32;100271.66;;;21.36;100.00
35553;BME280;21656;46.054;13.614;2022-09-09T11:09:02;100257.22;;;21.42;100.00
35553;BME280;21656;46.054;13.614;2022-09-09T11:11:41;100272.28;;;21.53;100.00
35553;BME280;21656;46.054;13.614;2022-09-09T11:14:10;100259.88;;;21.57;100.00
35553;BME280;21656;46.054;13.614;2022-09-09T11:21:42;100246.53;;;21.48;99.61
35553;BME280;21656;46.054;13.614;2022-09-09T11:24:22;100244.72;;;21.61;97.19
35553;BME280;21656;46.054;13.614;2022-09-09T11:27:20;100245.50;;;21.83;95.27
35553;BME280;21656;46.054;13.614;2022-09-09T11:33:08;100238.38;;;22.31;92.89
35553;BME280;21656;46.054;13.614;2022-09-09T11:38:26;100240.09;;;21.97;91.73
35553;BME280;21656;46.054;13.614;2022-09-09T11:41:01;100232.03;;;21.89;93.79
35553;BME280;21656;46.054;13.614;2022-09-09T11:43:31;100223.53;;;21.77;93.20
35553;BME280;21656;46.054;13.614;2022-09-09T11:46:01;100238.28;;;21.76;92.95
35553;BME280;21656;46.054;13.614;2022-09-09T11:48:43;100235.75;;;21.74;93.43
35553;BME280;21656;46.054;13.614;2022-09-09T11:56:34;100237.56;;;21.95;89.96
35553;BME280;21656;46.054;13.614;2022-09-09T11:59:31;100225.84;;;22.15;91.28
35553;BME280;21656;46.054;13.614;2022-09-09T12:02:01;100228.56;;;22.56;87.83
35553;BME280;21656;46.054;13.614;2022-09-09T12:07:00;100222.56;;;23.01;83.75
35553;BME280;21656;46.054;13.614;2022-09-09T12:19:39;100214.53;;;23.32;81.08
35553;BME280;21656;46.054;13.614;2022-09-09T12:24:46;100210.91;;;23.58;79.47
35553;BME280;21656;46.054;13.614;2022-09-09T12:27:31;100212.84;;;23.45;81.55
35553;BME280;21656;46.054;13.614;2022-09-09T12:30:01;100203.56;;;23.32;80.74
35553;BME280;21656;46.054;13.614;2022-09-09T12:32:28;100196.34;;;23.11;80.13
35553;BME280;21656;46.054;13.614;2022-09-09T12:35:19;100199.28;;;22.90;81.29
35553;BME280;21656;46.054;13.614;2022-09-09T12:37:51;100194.81;;;22.76;81.18
35553;BME280;21656;46.054;13.614;2022-09-09T12:40:21;100189.78;;;22.79;83.08
35553;BME280;21656;46.054;13.614;2022-09-09T12:42:47;100187.09;;;22.99;81.98
35553;BME280;21656;46.054;13.614;2022-09-09T12:45:25;100183.69;;;23.24;78.74
35553;BME280;21656;46.054;13.614;2022-09-09T12:48:00;100170.78;;;23.24;80.68
35553;BME280;21656;46.054;13.614;2022-09-09T12:50:32;100168.69;;;23.26;79.51
35553;BME280;21656;46.054;13.614;2022-09-09T12:53:04;100166.16;;;23.05;79.73
35553;BME280;21656;46.054;13.614;2022-09-09T12:55:35;100156.00;;;22.92;80.68
35553;BME280;21656;46.054;13.614;2022-09-09T12:58:02;100169.06;;;22.83;81.98
35553;BME280;21656;46.054;13.614;2022-09-09T13:00:31;100165.28;;;22.78;82.06
35553;BME280;21656;46.054;13.614;2022-09-09T13:03:01;100162.75;;;22.69;83.45
35553;BME280;21656;46.054;13.614;2022-09-09T13:05:31;100159.78;;;22.71;82.30
35553;BME280;21656;46.054;13.614;2022-09-09T13:08:08;100163.44;;;23.05;81.53
35553;BME280;21656;46.054;13.614;2022-09-09T13:10:54;100152.41;;;23.45;78.54
35553;BME280;21656;46.054;13.614;2022-09-09T13:13:24;100148.16;;;23.49;77.52
35553;BME280;21656;46.054;13.614;2022-09-09T13:15:56;100145.22;;;23.37;76.84
35553;BME280;21656;46.054;13.614;2022-09-09T13:18:24;100131.94;;;23.27;78.22
35553;BME280;21656;46.054;13.614;2022-09-09T13:20:50;100126.84;;;23.24;78.48
35553;BME280;21656;46.054;13.614;2022-09-09T13:23:18;100118.63;;;23.11;79.19
35553;BME280;21656;46.054;13.614;2022-09-09T13:26:06;100108.25;;;22.93;79.40
35553;BME280;21656;46.054;13.614;2022-09-09T13:28:33;100100.66;;;22.75;80.18
35553;BME280;21656;46.054;13.614;2022-09-09T13:31:05;100109.97;;;22.67;80.18
35553;BME280;21656;46.054;13.614;2022-09-09T13:33:36;100112.69;;;22.61;80.56
35553;BME280;21656;46.054;13.614;2022-09-09T13:36:07;100122.16;;;22.45;81.42
35553;BME280;21656;46.054;13.614;2022-09-09T13:38:40;100125.97;;;22.37;81.48
35553;BME280;21656;46.054;13.614;2022-09-09T13:41:22;100122.81;;;22.34;84.22
35553;BME280;21656;46.054;13.614;2022-09-09T13:43:49;100137.13;;;22.29;82.78
35553;BME280;21656;46.054;13.614;2022-09-09T13:46:41;100134.56;;;22.27;82.71
35553;BME280;21656;46.054;13.614;2022-09-09T13:51:40;100115.16;;;22.22;82.20
35553;BME280;21656;46.054;13.614;2022-09-09T13:54:09;100106.47;;;22.19;83.03
35553;BME280;21656;46.054;13.614;2022-09-09T13:56:36;100099.72;;;22.15;83.94
35553;BME280;21656;46.054;13.614;2022-09-09T13:59:04;100101.63;;;22.14;82.74
35553;BME280;21656;46.054;13.614;2022-09-09T14:01:29;100126.69;;;22.04;83.40
35553;BME280;21656;46.054;13.614;2022-09-09T14:03:56;100135.31;;;22.01;83.66
35553;BME280;21656;46.054;13.614;2022-09-09T14:06:22;100143.13;;;21.98;82.92
35553;BME280;21656;46.054;13.614;2022-09-09T14:08:51;100147.50;;;21.92;82.56
35553;BME280;21656;46.054;13.614;2022-09-09T14:11:17;100148.09;;;21.88;81.32
35553;BME280;21656;46.054;13.614;2022-09-09T14:13:43;100142.84;;;21.86;81.70
35553;BME280;21656;46.054;13.614;2022-09-09T14:16:08;100136.91;;;21.82;83.24
35553;BME280;21656;46.054;13.614;2022-09-09T14:18:34;100138.34;;;21.72;83.53
35553;BME280;21656;46.054;13.614;2022-09-09T14:21:00;100146.13;;;21.68;83.58
35553;BME280;21656;46.054;13.614;2022-09-09T14:23:26;100147.59;;;21.64;84.57
35553;BME280;21656;46.054;13.614;2022-09-09T14:25:52;100142.28;;;21.56;87.02
35553;BME280;21656;46.054;13.614;2022-09-09T14:28:17;100125.59;;;21.51;84.29
35553;BME280;21656;46.054;13.614;2022-09-09T14:30:43;100116.31;;;21.52;84.70
35553;BME280;21656;46.054;13.614;2022-09-09T14:33:14;100120.94;;;21.45;86.21
35553;BME280;21656;46.054;13.614;2022-09-09T14:35:39;100151.00;;;21.38;86.52
35553;BME280;21656;46.054;13.614;2022-09-09T14:38:06;100165.28;;;21.33;85.43
35553;BME280;21656;46.054;13.614;2022-09-09T14:40:34;100169.31;;;21.37;85.27
35553;BME280;21656;46.054;13.614;2022-09-09T14:43:00;100172.91;;;21.38;85.86